createdAt,value
2019-04-05T00:00:01.470Z,995.60
2019-04-05T00:01:01.456Z,995.61
2019-04-05T00:02:01.449Z,995.63
2019-04-05T00:03:01.429Z,995.65
2019-04-05T00:04:01.423Z,995.60
2019-04-05T00:05:01.479Z,995.65
2019-04-05T00:06:01.427Z,995.57
2019-04-05T00:07:01.392Z,995.55
2019-04-05T00:08:01.377Z,995.58
2019-04-05T00:09:01.361Z,995.57
2019-04-05T00:10:01.351Z,995.53
2019-04-05T00:11:01.340Z,995.60
2019-04-05T00:12:01.341Z,995.62
2019-04-05T00:13:01.319Z,995.57
2019-04-05T00:14:01.313Z,995.67
2019-04-05T00:15:14.268Z,995.58
2019-04-05T00:16:02.300Z,995.55
2019-04-05T00:17:01.275Z,995.66
2019-04-05T00:18:01.273Z,995.70
2019-04-05T00:19:01.257Z,995.66
2019-04-05T00:20:01.242Z,995.69
2019-04-05T00:21:01.230Z,995.70
2019-04-05T00:22:01.217Z,995.71
2019-04-05T00:23:01.213Z,995.69
2019-04-05T00:24:01.203Z,995.69
2019-04-05T00:25:01.189Z,995.65
2019-04-05T00:26:01.174Z,995.64
2019-04-05T00:27:01.181Z,995.67
2019-04-05T00:28:01.149Z,995.69
2019-04-05T00:29:01.150Z,995.69
2019-04-05T00:30:01.126Z,995.75
2019-04-05T00:31:01.116Z,995.70
2019-04-05T00:32:01.108Z,995.76
2019-04-05T00:33:01.098Z,995.71
2019-04-05T00:34:01.132Z,995.69
2019-04-05T00:35:01.068Z,995.73
2019-04-05T00:36:01.079Z,995.69
2019-04-05T00:37:01.050Z,995.72
2019-04-05T00:38:01.049Z,995.69
2019-04-05T00:39:01.033Z,995.66
2019-04-05T00:40:01.024Z,995.72
2019-04-05T00:41:01.010Z,995.73
2019-04-05T00:42:00.993Z,995.73
2019-04-05T00:43:01.009Z,995.71
2019-04-05T00:44:00.975Z,995.71
2019-04-05T00:45:00.961Z,995.71
2019-04-05T00:46:00.953Z,995.69
2019-04-05T00:47:00.941Z,995.73
2019-04-05T00:48:00.925Z,995.64
2019-04-05T00:49:00.919Z,995.74
2019-04-05T00:50:00.909Z,995.70
2019-04-05T00:51:00.899Z,995.70
2019-04-05T00:52:00.882Z,995.74
2019-04-05T00:53:00.879Z,995.72
2019-04-05T00:54:00.864Z,995.75
2019-04-05T00:55:00.854Z,995.71
2019-04-05T00:56:00.839Z,995.76
2019-04-05T00:57:00.829Z,995.78
2019-04-05T00:58:00.819Z,995.76
2019-04-05T00:59:00.822Z,995.78
2019-04-05T01:00:00.796Z,995.81
2019-04-05T01:01:00.782Z,995.77
2019-04-05T01:02:00.773Z,995.71
2019-04-05T01:03:00.759Z,995.77
2019-04-05T01:04:00.745Z,995.78
2019-04-05T01:05:00.741Z,995.81
2019-04-05T01:06:00.724Z,995.75
2019-04-05T01:07:00.719Z,995.73
2019-04-05T01:08:00.715Z,995.75
2019-04-05T01:09:00.694Z,995.78
2019-04-05T01:10:00.684Z,995.76
2019-04-05T01:11:00.672Z,995.80
2019-04-05T01:12:00.660Z,995.81
2019-04-05T01:13:00.641Z,995.80
2019-04-05T01:14:00.632Z,995.84
2019-04-05T01:15:00.626Z,995.80
2019-04-05T01:16:00.645Z,995.89
2019-04-05T01:17:00.606Z,995.91
2019-04-05T01:18:00.589Z,995.88
2019-04-05T01:19:00.578Z,995.94
2019-04-05T01:20:00.564Z,995.94
2019-04-05T01:21:00.554Z,995.91
2019-04-05T01:22:00.542Z,995.98
2019-04-05T01:23:00.542Z,995.97
2019-04-05T01:24:00.518Z,995.99
2019-04-05T01:25:00.511Z,995.96
2019-04-05T01:26:00.500Z,995.97
2019-04-05T01:27:00.488Z,995.95
2019-04-05T01:28:00.475Z,996.00
2019-04-05T01:29:00.463Z,995.97
2019-04-05T01:30:00.463Z,996.00
2019-04-05T01:31:00.442Z,996.04
2019-04-05T01:32:00.431Z,995.99
2019-04-05T01:33:00.418Z,995.98
2019-04-05T01:34:00.413Z,996.03
2019-04-05T01:35:00.399Z,996.07
2019-04-05T01:36:00.391Z,996.08
2019-04-05T01:37:00.380Z,996.05
2019-04-05T01:38:00.377Z,996.11
2019-04-05T01:39:00.351Z,996.15
2019-04-05T01:40:00.341Z,996.12
2019-04-05T01:41:00.327Z,996.11
2019-04-05T01:42:00.319Z,996.13
2019-04-05T01:43:00.323Z,996.10
2019-04-05T01:44:00.324Z,996.07
2019-04-05T01:45:00.293Z,996.13
2019-04-05T01:46:00.273Z,996.08
2019-04-05T01:47:00.263Z,996.14
2019-04-05T01:48:00.245Z,996.15
2019-04-05T01:49:00.245Z,996.14
2019-04-05T01:50:00.230Z,996.10
2019-04-05T01:51:00.211Z,996.12
2019-04-05T01:52:00.198Z,996.12
2019-04-05T01:53:00.187Z,996.11
2019-04-05T01:54:00.181Z,996.07
2019-04-05T01:55:00.179Z,996.05
2019-04-05T01:56:00.156Z,996.10
2019-04-05T01:57:00.165Z,996.07
2019-04-05T01:58:00.155Z,996.12
2019-04-05T01:59:00.126Z,996.12
2019-04-05T02:00:00.111Z,996.09
2019-04-05T02:01:00.120Z,996.15
2019-04-05T02:02:00.088Z,996.15
2019-04-05T02:03:00.084Z,996.09
2019-04-05T02:04:00.069Z,996.14
2019-04-05T02:05:00.061Z,996.12
2019-04-05T02:06:00.050Z,996.22
2019-04-05T02:07:00.034Z,996.14
2019-04-05T02:08:00.026Z,996.20
2019-04-05T02:09:00.020Z,996.17
2019-04-05T02:10:00.008Z,996.26
2019-04-05T02:10:59.992Z,996.24
2019-04-05T02:12:00.009Z,996.26
2019-04-05T02:12:59.962Z,996.23
2019-04-05T02:13:59.955Z,996.29
2019-04-05T02:14:59.947Z,996.23
2019-04-05T02:16:06.190Z,996.28
2019-04-05T02:17:00.921Z,996.29
2019-04-05T02:17:59.940Z,996.31
2019-04-05T02:18:59.902Z,996.28
2019-04-05T02:19:59.886Z,996.27
2019-04-05T02:20:59.885Z,996.29
2019-04-05T02:21:59.859Z,996.29
2019-04-05T02:22:59.871Z,996.25
2019-04-05T02:23:59.844Z,996.24
2019-04-05T02:24:59.831Z,996.26
2019-04-05T02:25:59.823Z,996.30
2019-04-05T02:26:59.812Z,996.29
2019-04-05T02:27:59.803Z,996.19
2019-04-05T02:28:59.781Z,996.31
2019-04-05T02:29:59.827Z,996.28
2019-04-05T02:30:59.767Z,996.30
2019-04-05T02:31:59.757Z,996.33
2019-04-05T02:32:59.742Z,996.29
2019-04-05T02:33:59.726Z,996.25
2019-04-05T02:34:59.717Z,996.28
2019-04-05T02:35:59.710Z,996.24
2019-04-05T02:36:59.700Z,996.27
2019-04-05T02:37:59.686Z,996.24
2019-04-05T02:38:59.681Z,996.26
2019-04-05T02:39:59.663Z,996.25
2019-04-05T02:40:59.648Z,996.31
2019-04-05T02:41:59.645Z,996.27
2019-04-05T02:42:59.641Z,996.29
2019-04-05T02:43:59.625Z,996.28
2019-04-05T02:44:59.623Z,996.28
2019-04-05T02:45:59.596Z,996.25
2019-04-05T02:46:59.582Z,996.31
2019-04-05T02:47:59.581Z,996.28
2019-04-05T02:48:59.562Z,996.30
2019-04-05T02:49:59.562Z,996.33
2019-04-05T02:50:59.534Z,996.27
2019-04-05T02:51:59.531Z,996.26
2019-04-05T02:52:59.518Z,996.34
2019-04-05T02:53:59.501Z,996.35
2019-04-05T02:54:59.492Z,996.32
2019-04-05T02:56:02.767Z,996.35
2019-04-05T02:56:59.475Z,996.35
2019-04-05T02:57:59.462Z,996.31
2019-04-05T02:58:59.449Z,996.33
2019-04-05T02:59:59.467Z,996.30
2019-04-05T03:00:59.430Z,996.31
2019-04-05T03:01:59.413Z,996.32
2019-04-05T03:02:59.405Z,996.32
2019-04-05T03:03:59.397Z,996.27
2019-04-05T03:04:59.382Z,996.35
2019-04-05T03:05:59.372Z,996.35
2019-04-05T03:06:59.360Z,996.26
2019-04-05T03:07:59.350Z,996.30
2019-04-05T03:08:59.335Z,996.32
2019-04-05T03:09:59.339Z,996.29
2019-04-05T03:10:59.329Z,996.34
2019-04-05T03:11:59.306Z,996.34
2019-04-05T03:12:59.300Z,996.38
2019-04-05T03:13:59.282Z,996.28
2019-04-05T03:14:59.273Z,996.34
2019-04-05T03:15:59.264Z,996.45
2019-04-05T03:16:59.266Z,996.42
2019-04-05T03:17:59.236Z,996.41
2019-04-05T03:18:59.263Z,996.44
2019-04-05T03:19:59.216Z,996.41
2019-04-05T03:20:59.206Z,996.43
2019-04-05T03:21:59.188Z,996.50
2019-04-05T03:22:59.177Z,996.44
2019-04-05T03:24:06.326Z,996.44
2019-04-05T03:25:40.844Z,996.48
2019-04-05T03:26:40.829Z,996.50
2019-04-05T03:27:40.807Z,996.56
2019-04-05T03:28:40.821Z,996.52
2019-04-05T03:29:40.785Z,996.54
2019-04-05T03:30:40.779Z,996.54
2019-04-05T03:31:40.809Z,996.50
2019-04-05T03:32:40.780Z,996.52
2019-04-05T03:33:40.740Z,996.53
2019-04-05T03:34:40.773Z,996.49
2019-04-05T03:35:40.715Z,996.56
2019-04-05T03:36:40.736Z,996.52
2019-04-05T03:37:40.720Z,996.55
2019-04-05T03:38:40.703Z,996.53
2019-04-05T03:39:40.681Z,996.51
2019-04-05T03:40:40.688Z,996.56
2019-04-05T03:41:40.670Z,996.60
2019-04-05T03:42:40.663Z,996.56
2019-04-05T03:43:40.643Z,996.58
2019-04-05T03:44:40.647Z,996.62
2019-04-05T03:45:40.604Z,996.63
2019-04-05T03:46:55.510Z,996.64
2019-04-05T03:47:41.590Z,996.68
2019-04-05T03:48:40.583Z,996.68
2019-04-05T03:49:40.607Z,996.72
2019-04-05T03:50:40.551Z,996.66
2019-04-05T03:51:40.545Z,996.69
2019-04-05T03:52:40.529Z,996.68
2019-04-05T03:53:40.531Z,996.65
2019-04-05T03:54:40.509Z,996.59
2019-04-05T03:55:40.522Z,996.65
2019-04-05T03:56:40.489Z,996.66
2019-04-05T03:57:40.476Z,996.69
2019-04-05T03:58:40.466Z,996.78
2019-04-05T03:59:40.456Z,996.70
2019-04-05T04:00:40.442Z,996.75
2019-04-05T04:01:40.491Z,996.67
2019-04-05T04:02:40.423Z,996.76
2019-04-05T04:03:40.411Z,996.69
2019-04-05T04:04:40.410Z,996.70
2019-04-05T04:05:40.384Z,996.71
2019-04-05T04:06:40.384Z,996.73
2019-04-05T04:07:40.399Z,996.73
2019-04-05T04:08:40.357Z,996.81
2019-04-05T04:09:40.351Z,996.79
2019-04-05T04:10:40.337Z,996.85
2019-04-05T04:11:40.318Z,996.82
2019-04-05T04:12:40.329Z,996.81
2019-04-05T04:13:40.306Z,996.78
2019-04-05T04:14:40.292Z,996.77
2019-04-05T04:15:40.281Z,996.80
2019-04-05T04:16:40.268Z,996.83
2019-04-05T04:17:40.262Z,996.82
2019-04-05T04:18:40.245Z,996.82
2019-04-05T04:19:40.233Z,996.85
2019-04-05T04:20:40.226Z,996.81
2019-04-05T04:21:40.215Z,996.86
2019-04-05T04:22:40.202Z,996.89
2019-04-05T04:23:40.195Z,996.84
2019-04-05T04:24:40.186Z,996.93
2019-04-05T04:25:40.172Z,996.92
2019-04-05T04:26:40.167Z,996.87
2019-04-05T04:27:40.150Z,996.97
2019-04-05T04:28:40.152Z,996.96
2019-04-05T04:29:40.120Z,996.97
2019-04-05T04:30:40.113Z,996.98
2019-04-05T04:31:40.105Z,996.99
2019-04-05T04:32:40.090Z,997.05
2019-04-05T04:33:40.115Z,997.00
2019-04-05T04:34:40.067Z,997.08
2019-04-05T04:35:40.058Z,997.13
2019-04-05T04:36:40.050Z,997.10
2019-04-05T04:37:40.044Z,997.12
2019-04-05T04:38:40.028Z,997.13
2019-04-05T04:39:40.023Z,997.18
2019-04-05T04:40:40.010Z,997.20
2019-04-05T04:41:39.999Z,997.21
2019-04-05T04:42:39.982Z,997.23
2019-04-05T04:43:39.974Z,997.19
2019-04-05T04:44:39.967Z,997.27
2019-04-05T04:45:39.948Z,997.23
2019-04-05T04:46:39.941Z,997.24
2019-04-05T04:47:39.931Z,997.28
2019-04-05T04:48:39.919Z,997.26
2019-04-05T04:49:39.905Z,997.23
2019-04-05T04:50:39.909Z,997.33
2019-04-05T04:51:39.885Z,997.39
2019-04-05T04:52:39.877Z,997.34
2019-04-05T04:53:39.879Z,997.32
2019-04-05T04:54:39.859Z,997.43
2019-04-05T04:55:39.856Z,997.44
2019-04-05T04:56:39.826Z,997.41
2019-04-05T04:57:46.984Z,997.41
2019-04-05T04:59:10.438Z,997.47
2019-04-05T05:00:10.430Z,997.50
2019-04-05T05:01:41.706Z,997.48
2019-04-05T05:02:41.704Z,997.47
2019-04-05T05:03:41.699Z,997.55
2019-04-05T05:04:41.672Z,997.55
2019-04-05T05:05:41.660Z,997.53
2019-04-05T05:06:41.678Z,997.55
2019-04-05T05:07:41.638Z,997.59
2019-04-05T05:08:41.630Z,997.58
2019-04-05T05:09:41.646Z,997.57
2019-04-05T05:10:41.603Z,997.62
2019-04-05T05:11:41.608Z,997.61
2019-04-05T05:12:41.578Z,997.65
2019-04-05T05:13:41.570Z,997.64
2019-04-05T05:14:41.556Z,997.60
2019-04-05T05:15:41.551Z,997.61
2019-04-05T05:16:41.547Z,997.64
2019-04-05T05:17:41.526Z,997.61
2019-04-05T05:18:41.520Z,997.60
2019-04-05T05:19:41.503Z,997.61
2019-04-05T05:20:42.788Z,997.63
2019-04-05T05:21:41.481Z,997.60
2019-04-05T05:22:41.487Z,997.61
2019-04-05T05:23:41.465Z,997.62
2019-04-05T05:24:41.499Z,997.59
2019-04-05T05:25:41.445Z,997.67
2019-04-05T05:26:41.476Z,997.67
2019-04-05T05:27:41.426Z,997.69
2019-04-05T05:28:41.402Z,997.69
2019-04-05T05:29:41.400Z,997.71
2019-04-05T05:30:41.393Z,997.70
2019-04-05T05:31:41.391Z,997.67
2019-04-05T05:32:41.363Z,997.67
2019-04-05T05:33:41.374Z,997.67
2019-04-05T05:34:41.340Z,997.74
2019-04-05T05:35:41.331Z,997.73
2019-04-05T05:36:41.319Z,997.75
2019-04-05T05:37:41.309Z,997.72
2019-04-05T05:38:41.301Z,997.74
2019-04-05T05:39:41.287Z,997.81
2019-04-05T05:40:41.278Z,997.73
2019-04-05T05:41:41.264Z,997.76
2019-04-05T05:42:41.256Z,997.77
2019-04-05T05:43:41.263Z,997.77
2019-04-05T05:44:41.236Z,997.83
2019-04-05T05:45:41.218Z,997.86
2019-04-05T05:46:41.210Z,997.87
2019-04-05T05:47:51.267Z,997.84
2019-04-05T05:48:42.270Z,997.90
2019-04-05T05:49:41.182Z,997.91
2019-04-05T05:50:41.171Z,997.92
2019-04-05T05:51:41.152Z,997.94
2019-04-05T05:52:41.148Z,997.88
2019-04-05T05:53:41.144Z,997.98
2019-04-05T05:54:41.136Z,998.01
2019-04-05T05:55:41.131Z,998.01
2019-04-05T05:56:41.108Z,998.03
2019-04-05T05:57:41.102Z,998.01
2019-04-05T05:58:41.090Z,997.99
2019-04-05T05:59:41.085Z,998.00
2019-04-05T06:00:41.067Z,998.02
2019-04-05T06:01:41.061Z,998.07
2019-04-05T06:02:41.055Z,998.11
2019-04-05T06:03:41.039Z,998.07
2019-04-05T06:04:41.030Z,998.07
2019-04-05T06:05:41.012Z,998.07
2019-04-05T06:06:41.019Z,998.10
2019-04-05T06:07:40.988Z,998.19
2019-04-05T06:08:41.011Z,998.19
2019-04-05T06:09:40.967Z,998.12
2019-04-05T06:10:40.946Z,998.15
2019-04-05T06:11:40.941Z,998.17
2019-04-05T06:12:40.931Z,998.20
2019-04-05T06:13:40.957Z,998.22
2019-04-05T06:14:40.901Z,998.18
2019-04-05T06:15:40.893Z,998.16
2019-04-05T06:16:46.544Z,998.19
2019-04-05T06:17:41.879Z,998.18
2019-04-05T06:18:40.861Z,998.23
2019-04-05T06:19:40.841Z,998.23
2019-04-05T06:20:40.832Z,998.22
2019-04-05T06:21:40.824Z,998.22
2019-04-05T06:22:40.819Z,998.24
2019-04-05T06:23:40.819Z,998.26
2019-04-05T06:24:40.804Z,998.21
2019-04-05T06:25:40.782Z,998.24
2019-04-05T06:26:40.777Z,998.32
2019-04-05T06:27:40.757Z,998.34
2019-04-05T06:28:40.873Z,998.37
2019-04-05T06:29:40.742Z,998.38
2019-04-05T06:30:47.891Z,998.36
2019-04-05T06:32:22.398Z,998.31
2019-04-05T06:33:31.329Z,998.34
2019-04-05T06:35:05.052Z,998.30
2019-04-05T06:36:05.011Z,998.31
2019-04-05T06:37:47.166Z,998.39
2019-04-05T06:38:47.152Z,998.42
2019-04-05T06:39:47.155Z,998.37
2019-04-05T06:40:47.130Z,998.29
2019-04-05T06:41:47.117Z,998.28
2019-04-05T06:42:47.106Z,998.28
2019-04-05T06:43:47.093Z,998.39
2019-04-05T06:44:47.084Z,998.30
2019-04-05T06:45:47.128Z,998.35
2019-04-05T06:46:47.091Z,998.40
2019-04-05T06:47:47.050Z,998.42
2019-04-05T06:48:47.044Z,998.41
2019-04-05T06:49:47.027Z,998.43
2019-04-05T06:50:47.566Z,998.41
2019-04-05T06:51:47.007Z,998.43
2019-04-05T06:52:47.002Z,998.46
2019-04-05T06:53:46.980Z,998.41
2019-04-05T06:54:46.976Z,998.44
2019-04-05T06:55:46.970Z,998.44
2019-04-05T06:56:46.955Z,998.45
2019-04-05T06:57:46.971Z,998.46
2019-04-05T06:58:46.930Z,998.49
2019-04-05T06:59:46.927Z,998.49
2019-04-05T07:00:57.005Z,998.39
2019-04-05T07:01:47.901Z,998.46
2019-04-05T07:02:46.883Z,998.46
2019-04-05T07:03:46.888Z,998.49
2019-04-05T07:04:46.875Z,998.53
2019-04-05T07:05:46.863Z,998.54
2019-04-05T07:06:46.847Z,998.54
2019-04-05T07:07:46.833Z,998.61
2019-04-05T07:08:53.794Z,998.62
2019-04-05T07:09:47.814Z,998.64
2019-04-05T07:10:46.804Z,998.70
2019-04-05T07:11:46.803Z,998.65
2019-04-05T07:12:46.797Z,998.69
2019-04-05T07:13:46.762Z,998.74
2019-04-05T07:14:46.780Z,998.77
2019-04-05T07:15:46.742Z,998.81
2019-04-05T07:16:46.746Z,998.85
2019-04-05T07:17:46.721Z,998.89
2019-04-05T07:18:46.709Z,998.89
2019-04-05T07:19:46.707Z,998.95
2019-04-05T07:20:46.689Z,998.97
2019-04-05T07:21:46.682Z,999.00
2019-04-05T07:22:46.679Z,998.92
2019-04-05T07:23:46.662Z,998.97
2019-04-05T07:24:49.421Z,998.96
2019-04-05T07:25:46.635Z,998.93
2019-04-05T07:26:46.624Z,999.02
2019-04-05T07:27:46.609Z,999.04
2019-04-05T07:28:46.600Z,999.05
2019-04-05T07:29:46.589Z,999.05
2019-04-05T07:30:46.586Z,999.04
2019-04-05T07:31:46.565Z,999.03
2019-04-05T07:32:46.560Z,999.07
2019-04-05T07:33:46.550Z,999.12
2019-04-05T07:34:46.535Z,999.17
2019-04-05T07:35:46.530Z,999.21
2019-04-05T07:36:46.514Z,999.22
2019-04-05T07:37:46.504Z,999.20
2019-04-05T07:38:46.491Z,999.30
2019-04-05T07:39:46.478Z,999.26
2019-04-05T07:40:46.481Z,999.22
2019-04-05T07:41:46.521Z,999.27
2019-04-05T07:42:46.454Z,999.30
2019-04-05T07:43:46.440Z,999.31
2019-04-05T07:44:46.425Z,999.35
2019-04-05T07:45:46.411Z,999.37
2019-04-05T07:46:46.766Z,999.41
2019-04-05T07:47:46.391Z,999.41
2019-04-05T07:48:46.390Z,999.37
2019-04-05T07:49:46.372Z,999.39
2019-04-05T07:50:46.368Z,999.41
2019-04-05T07:51:46.344Z,999.45
2019-04-05T07:52:46.358Z,999.49
2019-04-05T07:53:46.372Z,999.51
2019-04-05T07:54:46.344Z,999.50
2019-04-05T07:55:46.303Z,999.54
2019-04-05T07:56:46.512Z,999.49
2019-04-05T07:57:46.281Z,999.47
2019-04-05T07:58:46.284Z,999.51
2019-04-05T07:59:46.266Z,999.46
2019-04-05T08:00:46.246Z,999.49
2019-04-05T08:01:46.243Z,999.49
2019-04-05T08:02:46.227Z,999.58
2019-04-05T08:03:46.215Z,999.56
2019-04-05T08:04:46.209Z,999.62
2019-04-05T08:05:46.192Z,999.56
2019-04-05T08:06:46.189Z,999.51
2019-04-05T08:07:46.171Z,999.57
2019-04-05T08:08:46.192Z,999.53
2019-04-05T08:09:46.151Z,999.59
2019-04-05T08:10:46.157Z,999.64
2019-04-05T08:11:46.135Z,999.59
2019-04-05T08:12:46.113Z,999.60
2019-04-05T08:13:46.112Z,999.67
2019-04-05T08:14:46.093Z,999.63
2019-04-05T08:15:46.087Z,999.69
2019-04-05T08:16:46.073Z,999.73
2019-04-05T08:17:46.073Z,999.63
2019-04-05T08:18:57.048Z,999.64
2019-04-05T08:19:47.036Z,999.67
2019-04-05T08:20:46.020Z,999.64
2019-04-05T08:21:46.018Z,999.60
2019-04-05T08:22:45.999Z,999.61
2019-04-05T08:23:45.988Z,999.57
2019-04-05T08:24:45.982Z,999.62
2019-04-05T08:25:45.970Z,999.62
2019-04-05T08:26:45.972Z,999.62
2019-04-05T08:27:45.944Z,999.60
2019-04-05T08:28:45.930Z,999.61
2019-04-05T08:29:45.929Z,999.59
2019-04-05T08:30:45.925Z,999.57
2019-04-05T08:31:45.903Z,999.57
2019-04-05T08:32:45.903Z,999.58
2019-04-05T08:33:45.876Z,999.64
2019-04-05T08:34:45.865Z,999.59
2019-04-05T08:35:45.856Z,999.60
2019-04-05T08:36:45.842Z,999.62
2019-04-05T08:37:45.844Z,999.63
2019-04-05T08:38:45.822Z,999.64
2019-04-05T08:39:45.808Z,999.72
2019-04-05T08:40:45.802Z,999.68
2019-04-05T08:41:45.810Z,999.66
2019-04-05T08:42:45.780Z,999.61
2019-04-05T08:43:47.224Z,999.60
2019-04-05T08:44:45.749Z,999.58
2019-04-05T08:45:45.745Z,999.62
2019-04-05T08:46:45.738Z,999.67
2019-04-05T08:47:45.738Z,999.57
2019-04-05T08:48:45.717Z,999.66
2019-04-05T08:49:45.698Z,999.68
2019-04-05T08:50:45.697Z,999.63
2019-04-05T08:51:45.675Z,999.68
2019-04-05T08:52:45.666Z,999.64
2019-04-05T08:53:45.704Z,999.60
2019-04-05T08:54:45.650Z,999.65
2019-04-05T08:55:45.635Z,999.61
2019-04-05T08:56:45.628Z,999.65
2019-04-05T08:57:47.961Z,999.61
2019-04-05T08:58:45.602Z,999.64
2019-04-05T08:59:45.596Z,999.64
2019-04-05T09:00:45.584Z,999.58
2019-04-05T09:01:45.567Z,999.61
2019-04-05T09:02:45.631Z,999.57
2019-04-05T09:03:45.547Z,999.62
2019-04-05T09:04:45.541Z,999.69
2019-04-05T09:05:45.517Z,999.73
2019-04-05T09:06:45.508Z,999.64
2019-04-05T09:07:45.505Z,999.69
2019-04-05T09:08:45.492Z,999.61
2019-04-05T09:09:45.480Z,999.65
2019-04-05T09:10:45.517Z,999.64
2019-04-05T09:11:45.469Z,999.64
2019-04-05T09:12:45.442Z,999.70
2019-04-05T09:13:45.436Z,999.65
2019-04-05T09:14:45.424Z,999.69
2019-04-05T09:15:45.415Z,999.66
2019-04-05T09:16:45.396Z,999.65
2019-04-05T09:17:45.394Z,999.70
2019-04-05T09:18:45.378Z,999.69
2019-04-05T09:19:45.371Z,999.71
2019-04-05T09:20:45.351Z,999.78
2019-04-05T09:21:45.372Z,999.75
2019-04-05T09:22:45.334Z,999.87
2019-04-05T09:23:45.320Z,999.83
2019-04-05T09:24:45.308Z,999.89
2019-04-05T09:25:45.298Z,999.92
2019-04-05T09:26:45.294Z,999.86
2019-04-05T09:27:45.283Z,999.93
2019-04-05T09:28:45.268Z,1000.01
2019-04-05T09:29:45.254Z,1000.03
2019-04-05T09:30:45.249Z,1000.09
2019-04-05T09:31:45.232Z,999.97
2019-04-05T09:32:45.232Z,1000.08
2019-04-05T09:33:52.359Z,1000.03
2019-04-05T09:35:26.877Z,999.99
2019-04-05T09:36:33.991Z,1000.02
2019-04-05T09:38:08.514Z,999.96
2019-04-05T09:39:12.496Z,999.97
2019-04-05T09:40:09.496Z,999.99
2019-04-05T09:41:08.472Z,999.99
2019-04-05T09:42:08.461Z,1000.00
2019-04-05T09:43:08.452Z,1000.08
2019-04-05T09:44:08.443Z,1000.07
2019-04-05T09:45:08.426Z,1000.07
2019-04-05T09:46:08.419Z,1000.08
2019-04-05T09:47:15.589Z,1000.06
2019-04-05T09:48:50.095Z,1000.15
2019-04-05T09:49:50.069Z,1000.15
2019-04-05T09:50:50.069Z,1000.19
2019-04-05T09:51:50.047Z,1000.15
2019-04-05T09:52:50.280Z,1000.16
2019-04-05T09:53:50.113Z,1000.11
2019-04-05T09:54:50.020Z,1000.15
2019-04-05T09:55:50.005Z,1000.24
2019-04-05T09:56:49.998Z,1000.25
2019-04-05T09:57:50.063Z,1000.19
2019-04-05T09:58:49.972Z,1000.23
2019-04-05T09:59:49.982Z,1000.20
2019-04-05T10:00:49.964Z,1000.27
2019-04-05T10:01:49.944Z,1000.28
2019-04-05T10:02:49.939Z,1000.28
2019-04-05T10:03:49.949Z,1000.32
2019-04-05T10:04:49.903Z,1000.28
2019-04-05T10:05:49.921Z,1000.27
2019-04-05T10:06:49.907Z,1000.27
2019-04-05T10:07:55.307Z,1000.33
2019-04-05T10:08:50.857Z,1000.35
2019-04-05T10:09:50.484Z,1000.44
2019-04-05T10:10:49.847Z,1000.36
2019-04-05T10:11:49.847Z,1000.35
2019-04-05T10:12:49.815Z,1000.41
2019-04-05T10:13:49.802Z,1000.36
2019-04-05T10:14:49.821Z,1000.43
2019-04-05T10:15:49.781Z,1000.46
2019-04-05T10:16:49.777Z,1000.45
2019-04-05T10:17:49.771Z,1000.45
2019-04-05T10:18:51.518Z,1000.43
2019-04-05T10:19:50.542Z,1000.55
2019-04-05T10:20:49.736Z,1000.47
2019-04-05T10:21:49.731Z,1000.53
2019-04-05T10:22:49.710Z,1000.58
2019-04-05T10:23:49.692Z,1000.57
2019-04-05T10:24:49.684Z,1000.56
2019-04-05T10:25:49.673Z,1000.59
2019-04-05T10:26:49.672Z,1000.56
2019-04-05T10:27:49.670Z,1000.54
2019-04-05T10:28:49.653Z,1000.58
2019-04-05T10:29:49.776Z,1000.62
2019-04-05T10:30:51.926Z,1000.59
2019-04-05T10:31:49.643Z,1000.62
2019-04-05T10:32:49.590Z,1000.59
2019-04-05T10:33:49.592Z,1000.57
2019-04-05T10:34:49.579Z,1000.57
2019-04-05T10:35:49.563Z,1000.62
2019-04-05T10:36:49.550Z,1000.59
2019-04-05T10:37:49.539Z,1000.58
2019-04-05T10:38:49.524Z,1000.64
2019-04-05T10:39:49.519Z,1000.65
2019-04-05T10:40:49.504Z,1000.56
2019-04-05T10:42:02.373Z,1000.59
2019-04-05T10:42:50.481Z,1000.53
2019-04-05T10:43:49.473Z,1000.59
2019-04-05T10:44:49.457Z,1000.62
2019-04-05T10:45:49.451Z,1000.60
2019-04-05T10:46:49.429Z,1000.59
2019-04-05T10:47:49.424Z,1000.66
2019-04-05T10:48:49.409Z,1000.62
2019-04-05T10:50:01.700Z,1000.73
2019-04-05T10:50:50.388Z,1000.65
2019-04-05T10:51:49.377Z,1000.63
2019-04-05T10:52:49.367Z,1000.62
2019-04-05T10:53:49.359Z,1000.67
2019-04-05T10:54:49.346Z,1000.62
2019-04-05T10:55:49.334Z,1000.74
2019-04-05T10:56:49.324Z,1000.63
2019-04-05T10:57:49.312Z,1000.69
2019-04-05T10:58:49.299Z,1000.69
2019-04-05T10:59:49.284Z,1000.68
2019-04-05T11:00:49.273Z,1000.72
2019-04-05T11:01:49.271Z,1000.75
2019-04-05T11:02:49.258Z,1000.77
2019-04-05T11:03:49.241Z,1000.77
2019-04-05T11:04:49.231Z,1000.81
2019-04-05T11:05:49.586Z,1000.78
2019-04-05T11:06:49.204Z,1000.78
2019-04-05T11:07:49.195Z,1000.81
2019-04-05T11:08:49.180Z,1000.76
2019-04-05T11:09:49.176Z,1000.84
2019-04-05T11:10:49.159Z,1000.88
2019-04-05T11:11:49.170Z,1000.88
2019-04-05T11:12:50.020Z,1000.85
2019-04-05T11:13:49.133Z,1000.87
2019-04-05T11:14:49.113Z,1000.87
2019-04-05T11:15:49.117Z,1000.90
2019-04-05T11:16:58.439Z,1000.89
2019-04-05T11:17:50.086Z,1000.93
2019-04-05T11:18:49.093Z,1000.87
2019-04-05T11:19:49.072Z,1000.92
2019-04-05T11:20:49.774Z,1000.96
2019-04-05T11:21:52.176Z,1000.95
2019-04-05T11:22:50.159Z,1000.94
2019-04-05T11:23:49.097Z,1000.88
2019-04-05T11:24:49.010Z,1000.84
2019-04-05T11:25:49.023Z,1000.81
2019-04-05T11:26:48.977Z,1000.87
2019-04-05T11:27:48.969Z,1000.92
2019-04-05T11:28:48.957Z,1000.90
2019-04-05T11:29:48.952Z,1000.91
2019-04-05T11:30:48.944Z,1000.88
2019-04-05T11:31:57.086Z,1000.81
2019-04-05T11:32:49.917Z,1000.85
2019-04-05T11:33:48.907Z,1000.89
2019-04-05T11:34:48.908Z,1000.81
2019-04-05T11:35:48.890Z,1000.81
2019-04-05T11:36:48.891Z,1000.90
2019-04-05T11:37:50.660Z,1000.84
2019-04-05T11:38:50.800Z,1000.82
2019-04-05T11:39:48.845Z,1000.90
2019-04-05T11:40:48.829Z,1000.84
2019-04-05T11:41:48.831Z,1000.86
2019-04-05T11:42:48.816Z,1000.93
2019-04-05T11:43:48.848Z,1000.95
2019-04-05T11:44:48.790Z,1000.89
2019-04-05T11:45:50.852Z,1000.91
2019-04-05T11:46:49.376Z,1000.93
2019-04-05T11:47:48.758Z,1000.87
2019-04-05T11:48:48.739Z,1000.96
2019-04-05T11:49:48.726Z,1000.94
2019-04-05T11:50:48.715Z,1000.91
2019-04-05T11:51:48.709Z,1001.01
2019-04-05T11:52:48.708Z,1000.94
2019-04-05T11:53:48.699Z,1000.98
2019-04-05T11:54:48.665Z,1000.91
2019-04-05T11:55:48.660Z,1000.92
2019-04-05T11:56:48.656Z,1000.95
2019-04-05T11:57:48.642Z,1000.96
2019-04-05T11:58:48.999Z,1000.97
2019-04-05T11:59:49.229Z,1000.96
2019-04-05T12:00:48.620Z,1000.96
2019-04-05T12:01:48.627Z,1000.98
2019-04-05T12:02:48.596Z,1000.95
2019-04-05T12:03:48.577Z,1000.98
2019-04-05T12:04:48.562Z,1000.98
2019-04-05T12:05:48.546Z,1001.01
2019-04-05T12:06:51.836Z,1000.95
2019-04-05T12:07:48.529Z,1000.95
2019-04-05T12:08:48.532Z,1000.97
2019-04-05T12:09:48.665Z,1000.96
2019-04-05T12:10:48.503Z,1001.05
2019-04-05T12:11:48.486Z,1001.04
2019-04-05T12:12:48.491Z,1001.02
2019-04-05T12:13:48.465Z,1001.02
2019-04-05T12:14:48.459Z,1001.03
2019-04-05T12:15:48.446Z,1001.01
2019-04-05T12:16:48.440Z,1001.00
2019-04-05T12:17:48.419Z,1000.99
2019-04-05T12:18:48.405Z,1001.06
2019-04-05T12:19:48.394Z,1001.06
2019-04-05T12:20:57.836Z,1001.06
2019-04-05T12:21:49.372Z,1001.08
2019-04-05T12:22:48.373Z,1001.05
2019-04-05T12:23:48.350Z,1001.05
2019-04-05T12:24:48.397Z,1001.08
2019-04-05T12:25:48.334Z,1001.11
2019-04-05T12:26:48.315Z,1001.03
2019-04-05T12:27:48.309Z,1001.10
2019-04-05T12:28:48.299Z,1001.02